Time;durP1;ratioP1;P1;durP2;ratioP2;P2;SDS_P1;SDS_P2;PMS_P1;PMS_P2;Temp;Humidity;BMP_temperature;BMP_pressure;BME280_temperature;BME280_humidity;BME280_pressure;Samples;Min_cycle;Max_cycle;Signal;HPM_P1;HPM_P2
2022/04/29 00:00:16;;;;;;;11.95;4.45;;;;;;;8.39;40.41;101988.97;2089936;28;20797;-64
2022/04/29 00:01:24;;;;;;;14.10;4.55;;;;;;;8.34;40.65;101980.75;2100661;28;20377;-65
2022/04/29 00:02:32;;;;;;;7.85;3.60;;;;;;;8.39;40.91;101977.44;2097625;28;20045;-65
2022/04/29 00:03:37;;;;;;;11.18;4.50;;;;;;;8.39;41.12;101978.25;2098924;28;20282;-66
2022/04/29 00:04:43;;;;;;;8.35;3.88;;;;;;;8.45;41.12;101979.16;2105786;28;20290;-66
2022/04/29 00:05:46;;;;;;;9.85;4.10;;;;;;;8.51;41.28;101981.78;2106188;28;20285;-65
2022/04/29 00:06:50;;;;;;;9.13;3.97;;;;;;;8.54;40.99;101978.63;2106358;28;20642;-66
2022/04/29 00:07:55;;;;;;;9.77;4.00;;;;;;;8.51;41.42;101980.94;2105908;28;20282;-66
2022/04/29 00:08:59;;;;;;;8.55;3.75;;;;;;;8.52;41.11;101980.72;2106057;28;20286;-66
2022/04/29 00:10:02;;;;;;;9.18;3.90;;;;;;;8.53;40.98;101982.34;2106130;28;20650;-66
2022/04/29 00:11:06;;;;;;;10.40;3.83;;;;;;;8.49;41.05;101975.00;2105986;28;20635;-66
2022/04/29 00:12:12;;;;;;;8.52;4.05;;;;;;;8.47;41.43;101980.56;2097589;28;20287;-66
2022/04/29 00:13:19;;;;;;;11.73;4.32;;;;;;;8.46;41.43;101981.63;2091486;28;20294;-66
2022/04/29 00:14:24;;;;;;;8.80;3.42;;;;;;;8.47;41.17;101975.22;2105534;28;20704;-66
2022/04/29 00:15:32;;;;;;;12.10;3.90;;;;;;;8.42;41.47;101985.81;2105868;28;20301;-65
2022/04/29 00:16:38;;;;;;;9.73;3.92;;;;;;;8.42;41.88;101982.31;2114334;28;20278;-65
2022/04/29 00:17:48;;;;;;;10.25;3.83;;;;;;;8.43;41.75;101984.78;2112902;28;20277;-65
2022/04/29 00:18:52;;;;;;;8.15;3.20;;;;;;;8.38;41.85;101976.59;2112968;28;20765;-66
2022/04/29 00:19:57;;;;;;;10.18;3.80;;;;;;;8.35;42.07;101985.06;2098257;28;20040;-65
2022/04/29 00:21:04;;;;;;;8.85;3.80;;;;;;;8.34;42.30;101980.75;2090292;28;20295;-65
2022/04/29 00:22:07;;;;;;;10.90;3.45;;;;;;;8.32;42.32;101977.47;2105873;28;20785;-65
2022/04/29 00:23:11;;;;;;;8.60;3.65;;;;;;;8.32;42.18;101986.34;2114181;28;20277;-65
2022/04/29 00:24:17;;;;;;;8.68;3.63;;;;;;;8.36;42.30;101978.66;2097597;28;20293;-65
2022/04/29 00:25:18;;;;;;;8.45;4.38;;;;;;;8.37;42.18;101980.28;2106686;28;20294;-65
2022/04/29 00:26:22;;;;;;;7.72;3.28;;;;;;;8.42;42.28;101987.66;2089085;28;20294;-65
2022/04/29 00:27:28;;;;;;;7.55;3.47;;;;;;;8.43;42.51;101978.59;2088795;28;20300;-66
2022/04/29 00:28:34;;;;;;;7.40;3.83;;;;;;;8.42;42.29;101983.16;2105959;28;20285;-65
2022/04/29 00:29:36;;;;;;;6.70;3.20;;;;;;;8.34;42.59;101983.44;2111128;28;20285;-65
2022/04/29 00:30:41;;;;;;;8.05;3.03;;;;;;;8.42;42.81;101982.31;2097236;28;20773;-65
2022/04/29 00:31:45;;;;;;;6.50;3.30;;;;;;;8.43;42.53;101976.72;2082313;28;20635;-66
2022/04/29 00:32:51;;;;;;;7.10;2.83;;;;;;;8.43;42.79;101984.78;2106012;28;20772;-65
2022/04/29 00:33:53;;;;;;;8.57;3.22;;;;;;;8.47;42.74;101983.25;2113580;28;20289;-65
2022/04/29 00:35:00;;;;;;;10.90;3.20;;;;;;;8.54;42.69;101981.31;2105569;28;20282;-65
2022/04/29 00:36:08;;;;;;;7.45;3.22;;;;;;;8.52;42.66;101983.41;2091344;28;20809;-65
2022/04/29 00:37:12;;;;;;;10.32;3.25;;;;;;;8.56;42.86;101981.88;2089170;28;20295;-66
2022/04/29 00:38:18;;;;;;;6.28;3.28;;;;;;;8.55;42.43;101987.50;2089214;28;20295;-65
2022/04/29 00:39:19;;;;;;;8.30;3.28;;;;;;;8.51;42.71;101987.13;2089382;28;20298;-66
2022/04/29 00:40:26;;;;;;;8.63;2.70;;;;;;;8.50;42.89;101990.84;2090139;28;20287;-65
2022/04/29 00:41:28;;;;;;;5.85;2.83;;;;;;;8.55;43.05;101984.81;2097761;28;20286;-65
2022/04/29 00:42:30;;;;;;;7.03;3.20;;;;;;;8.52;43.01;101985.25;2088972;28;20314;-65
2022/04/29 00:43:33;;;;;;;5.55;2.80;;;;;;;8.50;43.37;101988.16;2080188;28;20622;-66
2022/04/29 00:44:40;;;;;;;7.30;3.20;;;;;;;8.46;42.90;101978.13;2089749;28;20771;-66
2022/04/29 00:45:45;;;;;;;6.00;3.08;;;;;;;8.45;42.90;101982.69;2097964;28;20292;-66
2022/04/29 00:46:51;;;;;;;7.75;3.20;;;;;;;8.51;43.55;101984.44;2080783;28;20307;-66
2022/04/29 00:47:55;;;;;;;6.90;2.97;;;;;;;8.55;43.06;101980.25;2083070;28;20296;-66
2022/04/29 00:49:00;;;;;;;6.13;3.30;;;;;;;8.57;42.90;101982.69;2082108;28;20116;-66
2022/04/29 00:50:02;;;;;;;7.28;3.20;;;;;;;8.52;42.93;101979.91;2081378;28;20284;-66
2022/04/29 00:51:08;;;;;;;5.95;2.65;;;;;;;8.58;43.49;101978.97;2097503;28;20800;-66
2022/04/29 00:52:14;;;;;;;8.27;3.20;;;;;;;8.61;43.15;101970.47;2106699;28;20282;-66
2022/04/29 00:53:18;;;;;;;7.32;3.03;;;;;;;8.63;43.22;101972.91;2097117;28;20718;-65
2022/04/29 00:54:29;;;;;;;5.72;2.92;;;;;;;8.55;43.23;101976.75;2098162;28;20800;-66
2022/04/29 00:55:36;;;;;;;5.65;2.67;;;;;;;8.58;43.30;101974.44;2113516;28;20641;-66
2022/04/29 00:56:41;;;;;;;7.35;2.70;;;;;;;8.63;43.39;101967.56;2105343;28;20282;-65
2022/04/29 00:58:06;;;;;;;6.35;3.30;;;;;;;8.67;43.34;101974.09;2106177;28;20271;-66
2022/04/29 00:59:24;;;;;;;5.63;2.85;;;;;;;8.71;43.41;101969.91;2109105;28;20272;-65
2022/04/29 01:00:28;;;;;;;8.90;3.28;;;;;;;8.72;43.34;101967.00;2107819;28;20383;-65
2022/04/29 01:01:34;;;;;;;7.57;2.83;;;;;;;8.74;43.14;101964.09;2088289;28;20291;-66
2022/04/29 01:02:41;;;;;;;8.82;3.00;;;;;;;8.76;43.22;101965.50;2082895;28;20296;-65
2022/04/29 01:03:50;;;;;;;11.50;3.15;;;;;;;8.72;43.20;101966.16;2090649;28;20306;-65
2022/04/29 01:05:01;;;;;;;6.93;3.05;;;;;;;8.74;43.50;101959.53;2082366;28;20284;-65
2022/04/29 01:06:04;;;;;;;7.07;2.97;;;;;;;8.73;43.35;101963.28;2097624;28;20639;-66
2022/04/29 01:07:06;;;;;;;6.72;3.20;;;;;;;8.70;43.40;101962.91;2104585;28;20309;-65
2022/04/29 01:08:09;;;;;;;8.82;3.15;;;;;;;8.62;43.46;101964.06;2088375;28;20292;-66
2022/04/29 01:09:10;;;;;;;13.05;2.85;;;;;;;8.59;43.88;101965.34;2088955;28;20291;-66
2022/04/29 01:10:14;;;;;;;8.10;3.13;;;;;;;8.55;43.45;101964.16;2088916;28;20306;-65
2022/04/29 01:11:23;;;;;;;7.88;3.20;;;;;;;8.58;44.23;101961.03;2089525;28;20294;-65
2022/04/29 01:12:30;;;;;;;6.80;3.00;;;;;;;8.64;44.00;101963.81;2097032;28;20673;-65
2022/04/29 01:13:35;;;;;;;5.00;2.70;;;;;;;8.65;44.10;101960.09;2089562;28;20283;-65
2022/04/29 01:14:41;;;;;;;8.18;3.08;;;;;;;8.65;43.78;101958.25;2098027;28;20044;-66
2022/04/29 01:15:45;;;;;;;7.80;3.15;;;;;;;8.66;43.97;101957.19;2106814;28;20286;-66
2022/04/29 01:16:58;;;;;;;8.75;3.03;;;;;;;8.62;44.35;101955.22;2105292;28;20290;-65
2022/04/29 01:18:06;;;;;;;10.00;3.25;;;;;;;8.61;43.70;101959.75;2104754;28;20277;-65
2022/04/29 01:19:11;;;;;;;7.78;3.40;;;;;;;8.61;44.41;101953.56;2105781;28;20274;-66
2022/04/29 01:20:16;;;;;;;8.70;2.92;;;;;;;8.61;44.27;101956.22;2102810;28;20281;-66
2022/04/29 01:21:23;;;;;;;8.90;2.92;;;;;;;8.57;44.11;101963.94;2098464;28;20286;-66
2022/04/29 01:22:26;;;;;;;8.32;3.10;;;;;;;8.54;44.56;101959.03;2097236;28;20287;-66
2022/04/29 01:23:33;;;;;;;6.25;2.85;;;;;;;8.51;44.58;101951.44;2097447;28;20289;-66
2022/04/29 01:24:41;;;;;;;7.13;2.85;;;;;;;8.52;44.59;101955.78;2106047;28;20681;-65
2022/04/29 01:25:45;;;;;;;10.20;3.13;;;;;;;8.52;45.02;101953.91;2097795;28;20287;-65
2022/04/29 01:26:50;;;;;;;5.70;3.05;;;;;;;8.61;44.59;101950.88;2089496;28;20290;-65
2022/04/29 01:27:52;;;;;;;7.00;2.80;;;;;;;8.66;44.47;101951.00;2089718;28;20306;-65
2022/04/29 01:29:02;;;;;;;5.55;3.00;;;;;;;8.64;44.75;101953.94;2089882;28;20295;-66
2022/04/29 01:30:13;;;;;;;6.03;3.03;;;;;;;8.60;44.89;101947.38;2091079;28;20302;-66
2022/04/29 01:31:25;;;;;;;6.13;2.67;;;;;;;8.56;44.92;101951.56;2096909;28;20286;-66
2022/04/29 01:32:30;;;;;;;;;;;;;;;8.56;45.44;101946.22;2100055;28;20295;-66
2022/04/29 01:33:37;;;;;;;4.85;2.55;;;;;;;8.54;44.67;101949.16;2105324;28;19920;-66
2022/04/29 01:34:47;;;;;;;6.90;2.97;;;;;;;8.51;44.96;101948.75;2098255;28;20380;-66
2022/04/29 01:35:49;;;;;;;5.72;2.90;;;;;;;8.44;45.31;101953.41;2089590;28;20644;-66
2022/04/29 01:36:53;;;;;;;7.20;2.88;;;;;;;8.34;45.72;101948.59;2089458;28;20292;-65
2022/04/29 01:37:57;;;;;;;8.27;2.90;;;;;;;8.36;45.69;101951.88;2088554;28;20291;-65
2022/04/29 01:38:58;;;;;;;6.75;2.70;;;;;;;8.34;45.53;101948.59;2080686;28;20295;-66
2022/04/29 01:40:02;;;;;;;7.38;3.00;;;;;;;8.33;45.63;101946.97;2080585;28;20292;-66
2022/04/29 01:41:10;;;;;;;5.95;3.22;;;;;;;8.36;45.88;101947.31;2090825;28;20290;-66
2022/04/29 01:42:14;;;;;;;5.35;2.78;;;;;;;8.36;45.81;101943.81;2097057;28;20293;-66
2022/04/29 01:43:21;;;;;;;8.20;3.33;;;;;;;8.41;45.73;101943.97;2089631;28;20314;-66
2022/04/29 01:44:24;;;;;;;8.63;3.10;;;;;;;8.44;45.84;101943.50;2097935;28;20278;-72
2022/04/29 01:45:31;;;;;;;5.88;2.75;;;;;;;8.46;45.87;101945.97;2105373;28;20288;-68
2022/04/29 01:46:50;;;;;;;6.70;2.92;;;;;;;8.40;46.02;101944.22;2087753;28;20302;-69
2022/04/29 01:48:10;;;;;;;5.38;2.63;;;;;;;8.43;45.95;101936.53;2072506;28;20307;-69
2022/04/29 01:49:25;;;;;;;8.10;3.30;;;;;;;8.43;46.09;101941.88;2085288;28;20779;-69
2022/04/29 01:50:31;;;;;;;6.07;3.20;;;;;;;8.38;46.17;101935.53;2081288;28;20424;-70
2022/04/29 01:51:42;;;;;;;8.75;3.08;;;;;;;8.39;46.06;101946.06;2083732;28;20716;-73
2022/04/29 01:52:47;;;;;;;;;;;;;;;8.34;46.53;101937.88;2105370;28;20290;-68
2022/04/29 01:53:53;;;;;;;6.18;2.88;;;;;;;8.30;46.26;101942.06;2113807;28;19916;-69
2022/04/29 01:54:55;;;;;;;10.27;2.97;;;;;;;8.29;46.78;101940.41;2098294;28;20302;-70
2022/04/29 01:55:57;;;;;;;7.95;3.20;;;;;;;8.29;46.58;101933.22;2090665;28;20295;-70
2022/04/29 01:57:03;;;;;;;7.68;2.90;;;;;;;8.35;46.35;101939.50;2099058;28;20620;-69
2022/04/29 01:58:08;;;;;;;7.65;3.17;;;;;;;8.34;46.29;101933.31;2099215;28;20283;-70
2022/04/29 01:59:13;;;;;;;7.50;3.45;;;;;;;8.26;46.76;101939.03;2091113;28;20274;-69
2022/04/29 02:00:38;;;;;;;7.55;3.20;;;;;;;8.19;47.11;101935.59;2096321;28;20769;-68
2022/04/29 02:01:44;;;;;;;5.43;2.60;;;;;;;8.12;47.37;101934.91;2091044;28;20298;-69
2022/04/29 02:02:50;;;;;;;7.20;3.30;;;;;;;8.19;46.87;101930.25;2083932;28;20364;-69
2022/04/29 02:03:53;;;;;;;8.63;2.95;;;;;;;8.19;47.05;101930.25;2090127;28;20283;-77
2022/04/29 02:05:05;;;;;;;6.88;3.00;;;;;;;8.24;47.19;101932.25;2092710;28;20743;-71
2022/04/29 02:06:06;;;;;;;7.88;3.10;;;;;;;8.22;47.43;101928.97;2099998;28;20270;-77
2022/04/29 02:07:15;;;;;;;8.60;3.08;;;;;;;8.27;47.36;101929.13;2098549;28;20286;-79
2022/04/29 02:08:19;;;;;;;7.18;2.75;;;;;;;8.20;47.41;101933.78;2100704;28;20889;-77
2022/04/29 02:09:24;;;;;;;7.72;2.97;;;;;;;8.21;47.47;101927.34;2089934;28;20283;-76
2022/04/29 02:10:27;;;;;;;6.18;2.85;;;;;;;8.23;47.51;101925.25;2075635;28;20697;-76
2022/04/29 02:11:34;;;;;;;8.93;3.20;;;;;;;8.24;47.88;101929.56;2098577;28;20282;-76
2022/04/29 02:12:56;;;;;;;6.20;3.00;;;;;;;8.27;47.78;101926.44;2106926;28;20757;-75
2022/04/29 02:14:05;;;;;;;12.23;3.10;;;;;;;8.20;47.84;101928.41;2099354;28;20275;-74
2022/04/29 02:15:27;;;;;;;8.05;3.15;;;;;;;8.21;47.73;101927.34;2101833;28;20281;-75
2022/04/29 02:16:32;;;;;;;9.52;2.80;;;;;;;8.26;47.96;101927.47;2101749;28;20748;-73
2022/04/29 02:17:38;;;;;;;8.85;3.25;;;;;;;8.21;47.82;101927.34;2082674;28;20280;-73
2022/04/29 02:18:41;;;;;;;6.05;2.75;;;;;;;8.14;48.03;101922.09;2087462;28;20357;-73
2022/04/29 02:19:47;;;;;;;5.63;3.13;;;;;;;8.12;48.37;101934.91;2100217;28;20601;-72
2022/04/29 02:20:49;;;;;;;5.80;3.17;;;;;;;8.19;48.29;101929.44;2107438;28;20298;-71
2022/04/29 02:21:54;;;;;;;4.97;2.70;;;;;;;8.18;48.56;101933.97;2098978;28;20298;-65
2022/04/29 02:22:58;;;;;;;7.95;2.88;;;;;;;8.19;48.39;101934.78;2099401;28;20278;-65
2022/04/29 02:24:03;;;;;;;7.15;3.03;;;;;;;8.19;48.50;101929.44;2090859;28;20294;-65
2022/04/29 02:25:14;;;;;;;8.57;3.03;;;;;;;8.23;48.64;101926.09;2091857;28;20271;-65
2022/04/29 02:26:18;;;;;;;6.90;3.35;;;;;;;8.24;48.40;101926.91;2106358;28;20799;-65
2022/04/29 02:27:22;;;;;;;8.65;3.00;;;;;;;8.19;48.58;101924.06;2090899;28;20662;-65
2022/04/29 02:28:24;;;;;;;5.78;2.80;;;;;;;8.23;48.62;101919.88;2090998;28;20311;-65
2022/04/29 02:29:29;;;;;;;5.50;3.08;;;;;;;8.27;48.42;101919.22;2106475;28;20319;-66
2022/04/29 02:30:35;;;;;;;9.10;3.00;;;;;;;8.33;48.57;101914.81;2098311;28;20282;-74
2022/04/29 02:31:45;;;;;;;6.30;2.90;;;;;;;8.32;48.14;101921.19;2099172;28;20301;-74
2022/04/29 02:32:55;;;;;;;6.68;2.83;;;;;;;8.35;48.46;101920.72;2098149;28;20294;-75
2022/04/29 02:33:59;;;;;;;4.90;2.60;;;;;;;8.30;48.82;101920.63;2083126;28;20655;-74
2022/04/29 02:35:02;;;;;;;10.30;3.40;;;;;;;8.33;48.82;101914.81;2090601;28;20283;-74
2022/04/29 02:36:09;;;;;;;11.95;3.00;;;;;;;8.38;48.68;101923.00;2098969;28;20275;-74
2022/04/29 02:37:12;;;;;;;9.48;2.83;;;;;;;8.39;48.53;101921.97;2093228;28;20291;-74
2022/04/29 02:38:19;;;;;;;6.93;2.97;;;;;;;8.29;48.55;101921.66;2090552;28;20291;-74
2022/04/29 02:39:25;;;;;;;9.05;3.30;;;;;;;8.33;48.75;101914.81;2082631;28;20872;-74
2022/04/29 02:40:27;;;;;;;8.20;3.40;;;;;;;8.33;49.10;101914.81;2090897;28;20292;-74
2022/04/29 02:41:29;;;;;;;8.23;3.35;;;;;;;8.34;49.18;101916.44;2098673;28;20291;-74
2022/04/29 02:42:34;;;;;;;10.77;3.42;;;;;;;8.33;49.36;101920.16;2090514;28;20785;-74
2022/04/29 02:43:35;;;;;;;8.43;3.38;;;;;;;8.31;48.96;101916.88;2082287;28;20671;-74
2022/04/29 02:44:37;;;;;;;8.18;3.00;;;;;;;8.25;49.26;101923.97;2089994;28;20322;-74
2022/04/29 02:45:41;;;;;;;8.27;3.20;;;;;;;8.24;49.34;101921.53;2082655;28;20284;-73
2022/04/29 02:48:06;;;;;;;7.07;3.17;;;;;;;8.01;49.93;101916.94;2100748;28;20302;-72
2022/04/29 02:49:11;;;;;;;7.22;3.33;;;;;;;8.04;50.15;101925.34;2090651;28;20286;-73
2022/04/29 02:50:13;;;;;;;11.43;3.60;;;;;;;8.05;49.99;101918.09;2082994;28;20292;-72
2022/04/29 02:51:26;;;;;;;8.25;3.53;;;;;;;8.07;50.21;101922.19;2084447;28;20295;-73
2022/04/29 02:52:28;;;;;;;11.27;3.65;;;;;;;8.15;50.42;101923.72;2089839;28;20290;-73
2022/04/29 02:53:33;;;;;;;9.45;3.67;;;;;;;8.20;50.37;101917.69;2106600;28;20773;-73
2022/04/29 02:54:36;;;;;;;9.25;3.83;;;;;;;8.19;50.54;101924.06;2106580;28;20289;-71
2022/04/29 02:55:43;;;;;;;9.90;3.78;;;;;;;8.18;50.47;101919.78;2114535;28;20281;-70
2022/04/29 02:57:11;;;;;;;7.28;4.03;;;;;;;8.21;50.68;101919.31;2091811;28;20291;-73
2022/04/29 02:58:20;;;;;;;8.50;3.85;;;;;;;8.25;50.75;101913.25;2078748;28;20026;-72
2022/04/29 02:59:22;;;;;;;13.02;4.60;;;;;;;8.30;50.51;101920.63;2074995;28;20419;-71
2022/04/29 03:00:27;;;;;;;10.20;3.80;;;;;;;8.28;50.41;101918.16;2090983;28;20291;-72
2022/04/29 03:01:33;;;;;;;13.02;4.63;;;;;;;8.31;50.54;101914.22;2097968;28;20291;-71
2022/04/29 03:02:35;;;;;;;11.63;4.53;;;;;;;8.28;50.67;101920.03;2090493;28;20367;-71
2022/04/29 03:03:42;;;;;;;12.20;5.05;;;;;;;8.23;51.21;101918.03;2089402;28;20302;-71
2022/04/29 03:04:47;;;;;;;11.98;4.30;;;;;;;8.25;51.13;101920.47;2098547;28;20298;-72
2022/04/29 03:05:52;;;;;;;12.63;5.15;;;;;;;8.19;51.45;101916.03;2098284;28;20279;-71
2022/04/29 03:06:54;;;;;;;15.32;5.20;;;;;;;8.07;51.55;101919.53;2097784;28;20306;-71
2022/04/29 03:07:58;;;;;;;14.40;4.93;;;;;;;8.05;51.62;101913.56;2098428;28;20287;-72
2022/04/29 03:09:10;;;;;;;12.18;5.25;;;;;;;8.06;51.51;101919.72;2099137;28;20297;-72
2022/04/29 03:10:12;;;;;;;14.43;5.40;;;;;;;8.02;51.59;101915.88;2098846;28;20041;-70
2022/04/29 03:11:15;;;;;;;15.13;5.00;;;;;;;7.98;51.84;101923.56;2098292;28;20290;-72
2022/04/29 03:12:23;;;;;;;12.57;5.25;;;;;;;7.98;51.82;101922.75;2089804;28;20292;-72
2022/04/29 03:13:29;;;;;;;11.00;4.72;;;;;;;8.07;51.53;101922.19;2092648;28;20318;-72
2022/04/29 03:14:42;;;;;;;12.05;4.65;;;;;;;8.03;52.03;101921.00;2097031;28;20295;-72
2022/04/29 03:15:46;;;;;;;14.05;4.75;;;;;;;8.02;51.96;101919.38;2098275;28;20293;-72
2022/04/29 03:16:54;;;;;;;14.43;4.75;;;;;;;7.99;52.23;101916.34;2098091;28;20298;-72
2022/04/29 03:19:23;;;;;;;12.20;5.45;;;;;;;8.01;52.66;101922.28;2114025;28;20424;-72
2022/04/29 03:20:28;;;;;;;9.70;4.45;;;;;;;7.94;52.68;101926.91;2107212;28;20281;-68
2022/04/29 03:21:35;;;;;;;11.98;4.53;;;;;;;7.98;52.63;101923.56;2106122;28;20890;-68
2022/04/29 03:22:39;;;;;;;11.40;4.60;;;;;;;7.97;52.83;101921.91;2106989;28;20297;-67
2022/04/29 03:23:49;;;;;;;12.30;4.63;;;;;;;7.98;53.20;101923.56;2113806;28;20281;-65
2022/04/29 03:24:51;;;;;;;12.25;4.45;;;;;;;8.01;53.18;101922.28;2106082;28;20352;-65
2022/04/29 03:25:54;;;;;;;11.23;4.63;;;;;;;7.98;53.39;101923.56;2106717;27;20292;-65
2022/04/29 03:27:01;;;;;;;10.77;4.75;;;;;;;8.02;53.40;101919.38;2105738;28;20773;-66
2022/04/29 03:28:05;;;;;;;10.95;4.65;;;;;;;8.11;53.65;101927.91;2098800;28;20299;-66
2022/04/29 03:29:07;;;;;;;10.80;4.88;;;;;;;8.09;53.34;101924.63;2105388;28;20293;-66
2022/04/29 03:30:12;;;;;;;11.80;5.03;;;;;;;8.11;53.34;101922.56;2097772;28;20298;-66
2022/04/29 03:31:20;;;;;;;11.68;4.57;;;;;;;8.16;53.72;101916.50;2098747;28;20317;-66
2022/04/29 03:33:09;;;;;;;10.48;4.60;;;;;;;8.19;53.63;101918.72;2093530;28;20778;-66
2022/04/29 03:34:20;;;;;;;;;;;;;;;8.27;53.39;101910.38;2101168;28;20646;-65
2022/04/29 03:35:25;;;;;;;10.00;4.35;;;;;;;8.31;53.61;101911.53;2098308;28;20375;-66
2022/04/29 03:36:36;;;;;;;10.18;4.45;;;;;;;8.34;53.61;101911.06;2098457;28;20291;-65
2022/04/29 03:37:39;;;;;;;9.40;4.78;;;;;;;8.34;54.01;101913.75;2098528;28;20686;-65
2022/04/29 03:38:46;;;;;;;9.45;4.43;;;;;;;8.31;54.31;101915.03;2090238;28;20298;-65
2022/04/29 03:39:53;;;;;;;10.73;4.20;;;;;;;8.31;53.94;101915.03;2090389;28;20963;-66
2022/04/29 03:40:57;;;;;;;8.52;4.25;;;;;;;8.37;53.59;101915.97;2083077;28;20284;-65
2022/04/29 03:42:08;;;;;;;16.73;5.10;;;;;;;8.33;53.54;101914.81;2092579;28;20291;-65
2022/04/29 03:43:12;;;;;;;10.73;4.70;;;;;;;8.42;53.89;101916.13;2092600;28;20136;-64
2022/04/29 03:44:15;;;;;;;11.50;4.20;;;;;;;8.43;53.62;101914.28;2097504;28;20287;-65
2022/04/29 03:45:20;;;;;;;12.73;4.65;;;;;;;8.44;53.48;101923.94;2082148;28;20334;-65
2022/04/29 03:46:23;;;;;;;9.70;4.35;;;;;;;8.49;53.57;101916.03;2082275;28;20678;-65
2022/04/29 03:47:44;;;;;;;10.00;4.78;;;;;;;8.60;53.80;101920.56;2099819;28;20297;-65
2022/04/29 03:50:32;;;;;;;11.45;4.70;;;;;;;8.71;53.94;101916.28;2105904;28;20278;-65
2022/04/29 03:51:56;;;;;;;8.77;4.45;;;;;;;8.68;53.90;101911.38;2100042;28;20282;-65
2022/04/29 03:53:00;;;;;;;10.30;4.68;;;;;;;8.74;53.48;101910.47;2097597;28;20393;-65
2022/04/29 03:54:04;;;;;;;12.82;4.65;;;;;;;8.84;53.31;101908.00;2098357;28;20298;-65
2022/04/29 03:55:10;;;;;;;15.68;5.55;;;;;;;8.91;52.79;101903.31;2097487;28;20287;-65
2022/04/29 03:56:13;;;;;;;14.88;5.22;;;;;;;8.95;52.86;101909.88;2112382;28;20273;-66
2022/04/29 03:57:15;;;;;;;10.85;5.28;;;;;;;8.96;52.50;101908.00;2114096;28;20772;-65
2022/04/29 03:58:22;;;;;;;15.15;5.65;;;;;;;9.04;52.62;101911.13;2106138;28;20614;-65
2022/04/29 03:59:28;;;;;;;17.05;6.05;;;;;;;9.13;52.57;101910.78;2105561;28;20274;-65
2022/04/29 04:00:32;;;;;;;15.60;5.85;;;;;;;9.24;52.47;101915.31;2093542;28;20310;-65
2022/04/29 04:01:36;;;;;;;14.68;6.35;;;;;;;9.24;53.08;101912.63;2082173;28;20292;-65
2022/04/29 04:02:44;;;;;;;14.20;6.40;;;;;;;9.29;52.60;101907.34;2090757;28;20283;-66
2022/04/29 04:03:46;;;;;;;15.85;7.07;;;;;;;9.34;52.20;101912.03;2098001;28;20283;-66
2022/04/29 04:04:53;;;;;;;13.80;6.15;;;;;;;9.43;52.67;101913.31;2097978;28;20291;-66
2022/04/29 04:07:17;;;;;;;14.43;5.97;;;;;;;9.59;52.24;101906.38;2099520;28;20286;-66
2022/04/29 04:08:43;;;;;;;16.35;6.80;;;;;;;9.61;52.16;101906.94;2104930;28;20289;-65
2022/04/29 04:09:48;;;;;;;14.07;6.10;;;;;;;9.66;52.48;101909.72;2097931;28;20287;-66
2022/04/29 04:10:57;;;;;;;17.58;6.25;;;;;;;9.67;52.08;101905.97;2091659;28;20288;-65
2022/04/29 04:12:00;;;;;;;14.65;6.30;;;;;;;9.81;51.93;101911.91;2098056;28;20298;-65
2022/04/29 04:13:34;;;;;;;16.05;5.55;;;;;;;9.92;51.91;101913.69;2085460;28;20291;-65
2022/04/29 04:15:05;;;;;;;18.20;6.45;;;;;;;10.01;51.87;101908.75;2101301;28;20740;-65
2022/04/29 04:16:13;;;;;;;16.17;6.65;;;;;;;10.14;51.42;101903.88;2090653;28;20571;-65
2022/04/29 04:17:17;;;;;;;15.60;7.00;;;;;;;10.22;51.69;101905.38;2082002;28;20292;-65
2022/04/29 04:18:22;;;;;;;15.13;6.85;;;;;;;10.28;51.71;101906.31;2089102;28;20373;-65
2022/04/29 04:19:26;;;;;;;19.25;6.85;;;;;;;10.43;51.32;101898.47;2098870;28;20286;-65
2022/04/29 04:20:32;;;;;;;15.48;7.05;;;;;;;10.52;50.99;101906.94;2106096;28;20297;-65
2022/04/29 04:21:47;;;;;;;16.25;6.40;;;;;;;10.56;50.63;101910.78;2113286;28;20799;-65
2022/04/29 04:22:51;;;;;;;15.68;6.57;;;;;;;10.72;51.05;101904.59;2107197;28;20266;-65
2022/04/29 04:24:08;;;;;;;16.20;6.72;;;;;;;10.75;50.92;101905.94;2107217;28;20032;-65
2022/04/29 04:25:17;;;;;;;17.23;7.53;;;;;;;10.90;50.63;101909.69;2107367;28;20646;-65
2022/04/29 04:26:23;;;;;;;15.68;6.80;;;;;;;11.07;50.03;101906.16;2097837;28;20793;-65
2022/04/29 04:27:33;;;;;;;13.73;6.20;;;;;;;11.29;49.56;101912.38;2100568;28;20290;-65
2022/04/29 04:28:34;;;;;;;16.80;6.95;;;;;;;11.50;49.46;101916.09;2097837;28;20310;-66
2022/04/29 04:29:41;;;;;;;17.60;6.53;;;;;;;11.66;49.08;101917.09;2088397;28;20284;-66
2022/04/29 04:30:48;;;;;;;17.95;6.20;;;;;;;11.79;48.61;101915.88;2090656;28;20283;-65
2022/04/29 04:31:59;;;;;;;17.50;5.97;;;;;;;11.90;48.58;101914.16;2091948;28;20738;-65
2022/04/29 04:33:03;;;;;;;16.70;6.38;;;;;;;12.07;48.04;101914.88;2091107;28;20279;-65
2022/04/29 04:35:29;;;;;;;14.98;5.88;;;;;;;12.42;47.35;101919.78;2089058;28;20763;-65
2022/04/29 04:36:34;;;;;;;14.38;6.28;;;;;;;12.55;47.27;101917.69;2095289;28;20290;-65
2022/04/29 04:37:40;;;;;;;18.50;5.88;;;;;;;12.61;47.11;101913.97;2095058;28;20282;-65
2022/04/29 04:38:47;;;;;;;13.32;5.93;;;;;;;12.69;47.30;101910.78;2100168;28;20275;-65
2022/04/29 04:39:58;;;;;;;16.88;5.65;;;;;;;12.65;47.26;101918.59;2106028;28;20286;-65
2022/04/29 04:41:08;;;;;;;13.55;4.80;;;;;;;12.84;47.53;101918.19;2101231;28;20285;-65
2022/04/29 04:42:20;;;;;;;12.30;5.35;;;;;;;12.97;47.15;101918.53;2113403;28;20055;-66
2022/04/29 04:43:27;;;;;;;14.65;4.88;;;;;;;13.20;47.40;101914.59;2098658;28;20294;-66
2022/04/29 04:44:31;;;;;;;11.10;5.53;;;;;;;13.21;47.19;101918.94;2097806;28;20291;-66
2022/04/29 04:45:34;;;;;;;11.38;5.13;;;;;;;13.30;47.00;101921.97;2097842;28;20381;-66
2022/04/29 04:46:55;;;;;;;;;;;;;;;13.40;46.98;101916.63;2114444;28;20297;-66
2022/04/29 04:48:22;;;;;;;10.23;4.55;;;;;;;13.57;46.45;101916.41;2112625;28;20318;-65
2022/04/29 04:49:50;;;;;;;29.85;5.40;;;;;;;13.64;46.50;101918.84;2105232;28;20274;-66
2022/04/29 04:50:59;;;;;;;12.10;5.20;;;;;;;13.70;46.22;101922.41;2103464;28;20673;-66
2022/04/29 04:52:03;;;;;;;14.05;5.03;;;;;;;13.85;46.18;101922.44;2096111;28;20278;-66
2022/04/29 04:53:08;;;;;;;9.00;4.65;;;;;;;13.96;45.61;101923.25;2081399;28;20771;-67
2022/04/29 04:54:16;;;;;;;28.63;5.40;;;;;;;14.14;45.45;101926.25;2088807;28;20283;-65
2022/04/29 04:55:19;;;;;;;16.33;5.82;;;;;;;14.26;45.10;101922.50;2107023;27;20646;-65
2022/04/29 04:56:26;;;;;;;14.70;4.80;;;;;;;14.36;44.93;101923.31;2098047;28;20293;-65
2022/04/29 04:57:29;;;;;;;12.35;4.95;;;;;;;14.47;44.88;101926.00;2099315;27;20413;-65
2022/04/29 04:58:37;;;;;;;9.23;5.03;;;;;;;14.63;44.43;101916.00;2102510;28;20293;-65
2022/04/29 04:59:39;;;;;;;9.85;4.38;;;;;;;14.71;44.07;101924.41;2098305;28;20282;-65
2022/04/29 05:00:41;;;;;;;16.45;5.35;;;;;;;14.83;44.17;101916.81;2107255;28;21076;-65
2022/04/29 05:02:06;;;;;;;9.85;4.80;;;;;;;14.94;43.33;101923.03;2105917;28;20285;-65
2022/04/29 05:03:36;;;;;;;7.50;4.18;;;;;;;15.02;43.36;101913.50;2108788;27;20291;-65
2022/04/29 05:04:58;;;;;;;9.40;4.30;;;;;;;15.12;43.48;101918.91;2077748;28;20288;-65
2022/04/29 05:06:22;;;;;;;9.02;4.82;;;;;;;15.15;43.21;101917.53;2076761;28;20041;-65
2022/04/29 05:07:24;;;;;;;9.75;4.75;;;;;;;14.99;43.40;101914.88;2096475;27;20291;-67
2022/04/29 05:08:29;;;;;;;15.00;4.90;;;;;;;15.13;43.56;101919.69;2106645;27;20048;-64
2022/04/29 05:09:33;;;;;;;8.73;4.70;;;;;;;15.20;43.06;101922.94;2102564;28;20040;-64
2022/04/29 05:10:36;;;;;;;11.82;4.93;;;;;;;15.40;42.99;101925.56;2097767;28;20059;-65
2022/04/29 05:11:41;;;;;;;11.27;5.00;;;;;;;15.81;42.35;101930.81;2088712;28;20049;-65
2022/04/29 05:12:57;;;;;;;11.82;5.13;;;;;;;16.08;41.40;101921.41;2096331;27;20055;-64
2022/04/29 05:14:09;;;;;;;10.13;5.18;;;;;;;16.34;40.75;101927.50;2099536;28;20040;-66
2022/04/29 05:15:19;;;;;;;10.88;4.75;;;;;;;16.72;40.69;101919.56;2105230;28;20609;-65
2022/04/29 05:16:21;;;;;;;9.45;4.40;;;;;;;16.97;39.86;101923.94;2089923;28;20763;-65
2022/04/29 05:17:47;;;;;;;10.55;4.80;;;;;;;17.30;39.05;101924.91;2104143;27;20411;-66
2022/04/29 05:19:17;;;;;;;10.95;5.00;;;;;;;17.62;38.52;101921.50;2086361;28;20047;-68
2022/04/29 05:20:22;;;;;;;11.55;4.82;;;;;;;17.72;38.06;101932.28;2096866;28;20052;-69
2022/04/29 05:21:24;;;;;;;10.52;4.78;;;;;;;17.91;37.81;101926.06;2087591;28;20041;-68